sensor_id;sensor_type;location;lat;lon;timestamp;pressure;altitude;pressure_sealevel;temperature;humidity
40285;BME280;25997;50.214;19.354;2022-11-15T00:15:52;98104.72;;;6.84;54.31
40285;BME280;25997;50.214;19.354;2022-11-15T00:20:05;98103.19;;;6.89;54.43
40285;BME280;25997;50.214;19.354;2022-11-15T00:24:35;98101.78;;;6.97;54.20
40285;BME280;25997;50.214;19.354;2022-11-15T00:29:13;98098.22;;;6.95;54.26
40285;BME280;25997;50.214;19.354;2022-11-15T00:32:36;98101.47;;;6.90;54.36
40285;BME280;25997;50.214;19.354;2022-11-15T00:36:48;98098.72;;;6.87;54.30
40285;BME280;25997;50.214;19.354;2022-11-15T00:41:18;98099.38;;;6.81;54.01
40285;BME280;25997;50.214;19.354;2022-11-15T00:45:55;98103.56;;;6.57;54.04
40285;BME280;25997;50.214;19.354;2022-11-15T00:50:28;98106.41;;;6.43;54.43
40285;BME280;25997;50.214;19.354;2022-11-15T00:55:06;98096.63;;;6.37;54.44
40285;BME280;25997;50.214;19.354;2022-11-15T00:59:35;98098.66;;;6.44;54.82
40285;BME280;25997;50.214;19.354;2022-11-15T01:04:11;98090.38;;;6.54;54.63
40285;BME280;25997;50.214;19.354;2022-11-15T01:08:50;98094.19;;;6.62;54.33
40285;BME280;25997;50.214;19.354;2022-11-15T01:13:33;98077.84;;;6.46;54.58
40285;BME280;25997;50.214;19.354;2022-11-15T01:18:09;98077.84;;;6.46;54.12
40285;BME280;25997;50.214;19.354;2022-11-15T01:22:39;98076.56;;;6.36;54.26
40285;BME280;25997;50.214;19.354;2022-11-15T01:27:16;98062.50;;;6.13;54.44
40285;BME280;25997;50.214;19.354;2022-11-15T01:31:45;98068.19;;;6.05;54.70
40285;BME280;25997;50.214;19.354;2022-11-15T01:36:21;98060.19;;;6.00;54.73
40285;BME280;25997;50.214;19.354;2022-11-15T01:40:52;98061.84;;;5.98;54.46
40285;BME280;25997;50.214;19.354;2022-11-15T01:45:23;98060.63;;;5.90;54.82
40285;BME280;25997;50.214;19.354;2022-11-15T01:50:01;98046.28;;;5.81;54.91
40285;BME280;25997;50.214;19.354;2022-11-15T01:54:32;98040.81;;;5.75;54.40
40285;BME280;25997;50.214;19.354;2022-11-15T01:59:10;98032.09;;;5.74;54.79
40285;BME280;25997;50.214;19.354;2022-11-15T02:03:48;98035.53;;;5.73;55.02
40285;BME280;25997;50.214;19.354;2022-11-15T02:08:09;98022.53;;;5.73;54.76
40285;BME280;25997;50.214;19.354;2022-11-15T02:27:57;98010.31;;;5.53;55.17
40285;BME280;25997;50.214;19.354;2022-11-15T02:32:42;97990.34;;;5.53;55.14
40285;BME280;25997;50.214;19.354;2022-11-15T02:37:24;97996.59;;;5.57;55.07
40285;BME280;25997;50.214;19.354;2022-11-15T02:42:06;97994.56;;;5.50;55.05
40285;BME280;25997;50.214;19.354;2022-11-15T02:46:50;97984.47;;;5.38;55.04
40285;BME280;25997;50.214;19.354;2022-11-15T02:51:27;97986.47;;;5.44;55.40
40285;BME280;25997;50.214;19.354;2022-11-15T02:55:57;97973.84;;;5.34;55.29
40285;BME280;25997;50.214;19.354;2022-11-15T03:00:34;97973.44;;;5.06;55.32
40285;BME280;25997;50.214;19.354;2022-11-15T03:05:10;97952.13;;;4.95;55.54
40285;BME280;25997;50.214;19.354;2022-11-15T03:15:01;97957.50;;;4.80;55.60
40285;BME280;25997;50.214;19.354;2022-11-15T03:19:46;97954.66;;;4.76;55.70
40285;BME280;25997;50.214;19.354;2022-11-15T03:24:23;97950.44;;;4.78;55.73
40285;BME280;25997;50.214;19.354;2022-11-15T03:28:55;97940.34;;;4.84;55.59
40285;BME280;25997;50.214;19.354;2022-11-15T03:33:35;97943.56;;;4.98;55.42
40285;BME280;25997;50.214;19.354;2022-11-15T03:38:05;97940.28;;;5.02;55.14
40285;BME280;25997;50.214;19.354;2022-11-15T03:42:43;97937.19;;;4.91;55.38
40285;BME280;25997;50.214;19.354;2022-11-15T03:47:27;97925.38;;;4.80;55.56
40285;BME280;25997;50.214;19.354;2022-11-15T03:51:59;97929.78;;;4.81;55.75
40285;BME280;25997;50.214;19.354;2022-11-15T03:56:24;97927.03;;;4.78;55.53
40285;BME280;25997;50.214;19.354;2022-11-15T04:01:03;97912.31;;;4.78;55.80
40285;BME280;25997;50.214;19.354;2022-11-15T04:05:33;97904.66;;;4.81;55.84
40285;BME280;25997;50.214;19.354;2022-11-15T04:10:11;97902.75;;;4.77;55.56
40285;BME280;25997;50.214;19.354;2022-11-15T04:14:53;97896.94;;;4.65;55.67
40285;BME280;25997;50.214;19.354;2022-11-15T04:19:27;97889.19;;;4.67;55.71
40285;BME280;25997;50.214;19.354;2022-11-15T04:24:05;97874.91;;;4.57;55.80
40285;BME280;25997;50.214;19.354;2022-11-15T04:28:41;97880.16;;;4.59;55.66
40285;BME280;25997;50.214;19.354;2022-11-15T04:38:37;97875.19;;;4.63;55.39
40285;BME280;25997;50.214;19.354;2022-11-15T04:42:48;97864.41;;;4.56;55.16
40285;BME280;25997;50.214;19.354;2022-11-15T04:47:19;97861.25;;;4.44;55.34
40285;BME280;25997;50.214;19.354;2022-11-15T04:51:56;97866.03;;;4.35;55.32
40285;BME280;25997;50.214;19.354;2022-11-15T04:56:27;97861.06;;;4.39;55.58
40285;BME280;25997;50.214;19.354;2022-11-15T05:01:06;97859.91;;;4.52;55.13
40285;BME280;25997;50.214;19.354;2022-11-15T05:05:35;97846.84;;;4.50;54.90
40285;BME280;25997;50.214;19.354;2022-11-15T05:15:14;97829.44;;;4.49;55.11
40285;BME280;25997;50.214;19.354;2022-11-15T05:19:46;97830.63;;;4.56;54.84
40285;BME280;25997;50.214;19.354;2022-11-15T05:24:26;97831.56;;;4.58;54.65
40285;BME280;25997;50.214;19.354;2022-11-15T05:28:58;97828.72;;;4.52;54.46
40285;BME280;25997;50.214;19.354;2022-11-15T05:33:35;97831.03;;;4.46;54.58
40285;BME280;25997;50.214;19.354;2022-11-15T05:38:08;97828.38;;;4.44;54.86
40285;BME280;25997;50.214;19.354;2022-11-15T05:42:48;97817.88;;;4.43;54.64
40285;BME280;25997;50.214;19.354;2022-11-15T05:47:18;97815.97;;;4.39;54.46
40285;BME280;25997;50.214;19.354;2022-11-15T05:51:57;97802.91;;;4.37;54.41
40285;BME280;25997;50.214;19.354;2022-11-15T05:56:28;97807.97;;;4.34;54.55
40285;BME280;25997;50.214;19.354;2022-11-15T06:01:08;97803.59;;;4.33;54.44
40285;BME280;25997;50.214;19.354;2022-11-15T06:05:46;97810.56;;;4.34;54.33
40285;BME280;25997;50.214;19.354;2022-11-15T06:10:16;97819.72;;;4.26;54.13
40285;BME280;25997;50.214;19.354;2022-11-15T06:14:56;97815.94;;;4.19;54.26
40285;BME280;25997;50.214;19.354;2022-11-15T06:19:28;97811.28;;;4.12;54.44
40285;BME280;25997;50.214;19.354;2022-11-15T06:23:59;97814.41;;;4.05;54.69
40285;BME280;25997;50.214;19.354;2022-11-15T06:28:35;97817.97;;;4.07;54.97
40285;BME280;25997;50.214;19.354;2022-11-15T06:33:05;97816.75;;;4.18;54.76
40285;BME280;25997;50.214;19.354;2022-11-15T06:37:50;97823.41;;;4.31;54.57
40285;BME280;25997;50.214;19.354;2022-11-15T06:42:46;97815.75;;;4.34;54.51
40285;BME280;25997;50.214;19.354;2022-11-15T06:47:16;97819.53;;;4.41;54.46
40285;BME280;25997;50.214;19.354;2022-11-15T06:51:53;97828.59;;;4.49;54.45
40285;BME280;25997;50.214;19.354;2022-11-15T06:56:25;97815.91;;;4.56;54.37
40285;BME280;25997;50.214;19.354;2022-11-15T07:00:37;97820.91;;;4.52;54.42
40285;BME280;25997;50.214;19.354;2022-11-15T07:03:58;97827.81;;;4.51;54.69
40285;BME280;25997;50.214;19.354;2022-11-15T07:08:10;97821.13;;;4.56;54.34
40285;BME280;25997;50.214;19.354;2022-11-15T07:12:52;97826.53;;;4.61;53.93
40285;BME280;25997;50.214;19.354;2022-11-15T07:17:35;97823.72;;;4.56;53.86
40285;BME280;25997;50.214;19.354;2022-11-15T07:22:09;97829.59;;;4.52;54.36
40285;BME280;25997;50.214;19.354;2022-11-15T07:26:08;97824.78;;;4.60;53.77
40285;BME280;25997;50.214;19.354;2022-11-15T07:35:08;97823.16;;;4.81;54.08
40285;BME280;25997;50.214;19.354;2022-11-15T07:39:48;97833.06;;;4.89;53.80
40285;BME280;25997;50.214;19.354;2022-11-15T07:44:20;97817.56;;;4.91;53.88
40285;BME280;25997;50.214;19.354;2022-11-15T07:48:40;97825.16;;;4.86;54.08
40285;BME280;25997;50.214;19.354;2022-11-15T07:52:03;97829.31;;;5.02;54.21
40285;BME280;25997;50.214;19.354;2022-11-15T07:55:25;97826.34;;;5.14;54.25
40285;BME280;25997;50.214;19.354;2022-11-15T07:58:46;97818.94;;;5.23;53.99
40285;BME280;25997;50.214;19.354;2022-11-15T08:02:08;97819.13;;;5.27;54.10
40285;BME280;25997;50.214;19.354;2022-11-15T08:05:29;97815.50;;;5.44;54.29
40285;BME280;25997;50.214;19.354;2022-11-15T08:08:52;97814.00;;;5.70;54.17
40285;BME280;25997;50.214;19.354;2022-11-15T08:12:14;97814.44;;;5.81;53.63
40285;BME280;25997;50.214;19.354;2022-11-15T08:15:36;97812.78;;;5.83;54.12
40285;BME280;25997;50.214;19.354;2022-11-15T08:18:57;97812.81;;;6.05;54.12
40285;BME280;25997;50.214;19.354;2022-11-15T08:22:19;97804.28;;;6.29;53.90
40285;BME280;25997;50.214;19.354;2022-11-15T08:25:41;97806.09;;;6.54;53.69
40285;BME280;25997;50.214;19.354;2022-11-15T08:29:02;97804.56;;;6.59;53.68
40285;BME280;25997;50.214;19.354;2022-11-15T08:32:24;97796.41;;;6.74;53.68
40285;BME280;25997;50.214;19.354;2022-11-15T08:35:45;97803.22;;;6.94;53.60
40285;BME280;25997;50.214;19.354;2022-11-15T08:39:06;97807.22;;;7.08;53.64
40285;BME280;25997;50.214;19.354;2022-11-15T08:42:28;97806.00;;;7.22;53.80
40285;BME280;25997;50.214;19.354;2022-11-15T08:45:49;97807.47;;;7.39;53.47
40285;BME280;25997;50.214;19.354;2022-11-15T08:49:10;97802.22;;;7.64;53.52
40285;BME280;25997;50.214;19.354;2022-11-15T08:52:31;97797.13;;;7.93;53.26
40285;BME280;25997;50.214;19.354;2022-11-15T08:55:52;97801.25;;;8.13;52.98
40285;BME280;25997;50.214;19.354;2022-11-15T08:59:14;97800.03;;;8.30;52.82
40285;BME280;25997;50.214;19.354;2022-11-15T09:02:37;97811.69;;;8.39;52.74
40285;BME280;25997;50.214;19.354;2022-11-15T09:05:59;97800.97;;;8.32;52.91
40285;BME280;25997;50.214;19.354;2022-11-15T09:09:20;97802.91;;;8.37;52.87
40285;BME280;25997;50.214;19.354;2022-11-15T09:12:41;97803.66;;;8.63;52.85
40285;BME280;25997;50.214;19.354;2022-11-15T09:16:04;97794.94;;;8.91;52.62
40285;BME280;25997;50.214;19.354;2022-11-15T09:19:25;97794.63;;;9.11;52.50
40285;BME280;25997;50.214;19.354;2022-11-15T09:22:46;97794.97;;;9.23;52.59
40285;BME280;25997;50.214;19.354;2022-11-15T09:26:07;97789.09;;;9.32;52.54
40285;BME280;25997;50.214;19.354;2022-11-15T09:29:28;97789.59;;;9.52;52.46
40285;BME280;25997;50.214;19.354;2022-11-15T09:32:50;97792.44;;;9.59;52.38
40285;BME280;25997;50.214;19.354;2022-11-15T09:36:12;97785.41;;;9.58;52.18
40285;BME280;25997;50.214;19.354;2022-11-15T09:39:33;97775.53;;;9.82;52.04
40285;BME280;25997;50.214;19.354;2022-11-15T09:43:06;97767.63;;;10.15;51.51
40285;BME280;25997;50.214;19.354;2022-11-15T09:46:36;97766.09;;;10.65;51.79
40285;BME280;25997;50.214;19.354;2022-11-15T09:50:11;97761.00;;;11.13;51.04
40285;BME280;25997;50.214;19.354;2022-11-15T09:53:24;97743.47;;;11.61;50.57
40285;BME280;25997;50.214;19.354;2022-11-15T09:56:29;97746.78;;;12.02;49.97
40285;BME280;25997;50.214;19.354;2022-11-15T09:59:52;97739.44;;;12.37;48.25
40285;BME280;25997;50.214;19.354;2022-11-15T10:03:08;97730.00;;;12.52;47.69
40285;BME280;25997;50.214;19.354;2022-11-15T10:06:22;97717.59;;;12.44;46.73
40285;BME280;25997;50.214;19.354;2022-11-15T10:09:29;97713.53;;;12.68;48.00
40285;BME280;25997;50.214;19.354;2022-11-15T10:12:34;97704.06;;;12.84;47.52
40285;BME280;25997;50.214;19.354;2022-11-15T10:15:37;97706.09;;;13.09;47.02
40285;BME280;25997;50.214;19.354;2022-11-15T10:18:50;97696.69;;;13.32;46.33
40285;BME280;25997;50.214;19.354;2022-11-15T10:22:11;97696.00;;;13.54;46.09
40285;BME280;25997;50.214;19.354;2022-11-15T10:25:19;97702.34;;;13.75;46.05
40285;BME280;25997;50.214;19.354;2022-11-15T10:28:26;97705.09;;;13.90;45.05
40285;BME280;25997;50.214;19.354;2022-11-15T10:31:29;97688.38;;;13.92;45.74
40285;BME280;25997;50.214;19.354;2022-11-15T10:34:35;97689.44;;;14.11;45.68
40285;BME280;25997;50.214;19.354;2022-11-15T10:37:39;97689.50;;;14.24;45.05
40285;BME280;25997;50.214;19.354;2022-11-15T10:40:42;97684.28;;;14.37;44.96
40285;BME280;25997;50.214;19.354;2022-11-15T10:44:02;97678.19;;;14.48;44.16
40285;BME280;25997;50.214;19.354;2022-11-15T10:47:21;97678.22;;;14.60;42.71
40285;BME280;25997;50.214;19.354;2022-11-15T10:50:29;97675.59;;;14.59;43.98
40285;BME280;25997;50.214;19.354;2022-11-15T10:53:45;97673.97;;;14.86;43.02
40285;BME280;25997;50.214;19.354;2022-11-15T10:56:50;97663.44;;;14.97;42.97
40285;BME280;25997;50.214;19.354;2022-11-15T10:59:56;97669.47;;;14.72;42.18
40285;BME280;25997;50.214;19.354;2022-11-15T11:03:01;97658.75;;;14.35;43.11
40285;BME280;25997;50.214;19.354;2022-11-15T11:06:06;97648.19;;;14.39;43.26
40285;BME280;25997;50.214;19.354;2022-11-15T11:09:23;97657.09;;;14.60;42.02
40285;BME280;25997;50.214;19.354;2022-11-15T11:12:30;97652.44;;;14.06;41.84
40285;BME280;25997;50.214;19.354;2022-11-15T11:15:33;97659.06;;;13.53;43.11
40285;BME280;25997;50.214;19.354;2022-11-15T11:18:39;97657.97;;;13.31;43.64
40285;BME280;25997;50.214;19.354;2022-11-15T11:21:51;97659.75;;;13.34;43.60
40285;BME280;25997;50.214;19.354;2022-11-15T11:25:07;97657.22;;;13.43;43.33
40285;BME280;25997;50.214;19.354;2022-11-15T11:28:26;97649.34;;;13.47;42.15
40285;BME280;25997;50.214;19.354;2022-11-15T11:31:38;97653.59;;;13.33;43.30
40285;BME280;25997;50.214;19.354;2022-11-15T11:34:56;97648.28;;;13.27;42.91
40285;BME280;25997;50.214;19.354;2022-11-15T11:38:17;97639.03;;;12.83;43.60
40285;BME280;25997;50.214;19.354;2022-11-15T11:41:45;97642.56;;;12.85;42.95
40285;BME280;25997;50.214;19.354;2022-11-15T11:44:56;97635.41;;;12.73;43.86
40285;BME280;25997;50.214;19.354;2022-11-15T11:48:09;97635.41;;;12.73;43.90
40285;BME280;25997;50.214;19.354;2022-11-15T11:51:18;97625.75;;;12.72;44.20
40285;BME280;25997;50.214;19.354;2022-11-15T11:54:34;97614.41;;;12.81;44.26
40285;BME280;25997;50.214;19.354;2022-11-15T11:57:45;97618.09;;;12.98;44.46
40285;BME280;25997;50.214;19.354;2022-11-15T12:00:53;97610.56;;;13.36;44.38
40285;BME280;25997;50.214;19.354;2022-11-15T12:03:59;97608.06;;;13.54;43.86
40285;BME280;25997;50.214;19.354;2022-11-15T12:07:08;97597.56;;;13.63;43.79
40285;BME280;25997;50.214;19.354;2022-11-15T12:10:20;97593.28;;;13.80;43.63
40285;BME280;25997;50.214;19.354;2022-11-15T12:13:28;97591.53;;;13.78;43.65
40285;BME280;25997;50.214;19.354;2022-11-15T12:16:35;97590.63;;;13.79;43.89
40285;BME280;25997;50.214;19.354;2022-11-15T12:19:38;97590.69;;;13.82;43.69
40285;BME280;25997;50.214;19.354;2022-11-15T12:22:43;97587.16;;;13.80;43.83
40285;BME280;25997;50.214;19.354;2022-11-15T12:25:52;97584.44;;;13.72;43.91
40285;BME280;25997;50.214;19.354;2022-11-15T12:28:59;97579.88;;;13.47;43.92
40285;BME280;25997;50.214;19.354;2022-11-15T12:32:04;97574.50;;;13.33;44.25
40285;BME280;25997;50.214;19.354;2022-11-15T12:35:23;97573.53;;;13.22;44.28
40285;BME280;25997;50.214;19.354;2022-11-15T12:38:51;97564.59;;;13.07;44.52
40285;BME280;25997;50.214;19.354;2022-11-15T12:45:34;97554.09;;;13.11;44.97
40285;BME280;25997;50.214;19.354;2022-11-15T12:48:49;97561.16;;;13.12;44.84
40285;BME280;25997;50.214;19.354;2022-11-15T12:52:05;97555.81;;;13.05;44.83
40285;BME280;25997;50.214;19.354;2022-11-15T12:55:32;97548.63;;;12.90;44.82
40285;BME280;25997;50.214;19.354;2022-11-15T12:58:41;97544.13;;;12.78;45.42
40285;BME280;25997;50.214;19.354;2022-11-15T13:02:01;97548.63;;;12.91;45.22
40285;BME280;25997;50.214;19.354;2022-11-15T13:05:55;97536.34;;;12.93;45.47
40285;BME280;25997;50.214;19.354;2022-11-15T13:08:58;97532.81;;;12.88;45.61
40285;BME280;25997;50.214;19.354;2022-11-15T13:12:01;97531.06;;;12.90;45.64
40285;BME280;25997;50.214;19.354;2022-11-15T13:19:02;97522.22;;;12.82;45.58
40285;BME280;25997;50.214;19.354;2022-11-15T13:22:09;97530.94;;;12.75;45.89
40285;BME280;25997;50.214;19.354;2022-11-15T13:25:49;97520.31;;;12.66;45.99
40285;BME280;25997;50.214;19.354;2022-11-15T13:28:55;97515.06;;;12.66;46.10
40285;BME280;25997;50.214;19.354;2022-11-15T13:31:57;97511.53;;;12.67;46.15
40285;BME280;25997;50.214;19.354;2022-11-15T13:35:01;97507.16;;;12.69;46.05
40285;BME280;25997;50.214;19.354;2022-11-15T13:38:04;97507.25;;;12.80;46.25
40285;BME280;25997;50.214;19.354;2022-11-15T13:41:17;97498.53;;;12.84;46.07
40285;BME280;25997;50.214;19.354;2022-11-15T13:44:22;97495.84;;;12.82;46.08
40285;BME280;25997;50.214;19.354;2022-11-15T13:47:26;97487.94;;;12.81;46.40
40285;BME280;25997;50.214;19.354;2022-11-15T13:50:33;97491.47;;;12.84;46.40
40285;BME280;25997;50.214;19.354;2022-11-15T13:53:40;97487.94;;;12.82;46.35
40285;BME280;25997;50.214;19.354;2022-11-15T13:56:51;97481.78;;;12.80;46.43
40285;BME280;25997;50.214;19.354;2022-11-15T13:59:59;97484.44;;;12.80;46.54
40285;BME280;25997;50.214;19.354;2022-11-15T14:03:17;97480.09;;;12.85;46.46
40285;BME280;25997;50.214;19.354;2022-11-15T14:06:23;97480.13;;;12.88;46.66
40285;BME280;25997;50.214;19.354;2022-11-15T14:09:36;97473.97;;;12.88;46.48
40285;BME280;25997;50.214;19.354;2022-11-15T14:12:38;97473.88;;;12.79;46.62
40285;BME280;25997;50.214;19.354;2022-11-15T14:15:41;97466.75;;;12.67;46.67
40285;BME280;25997;50.214;19.354;2022-11-15T14:18:46;97466.72;;;12.60;46.88
40285;BME280;25997;50.214;19.354;2022-11-15T14:22:19;97464.84;;;12.50;46.94
40285;BME280;25997;50.214;19.354;2022-11-15T14:25:23;97464.72;;;12.36;47.22
40285;BME280;25997;50.214;19.354;2022-11-15T14:28:30;97466.38;;;12.27;47.31
40285;BME280;25997;50.214;19.354;2022-11-15T14:31:34;97461.00;;;12.14;47.46
40285;BME280;25997;50.214;19.354;2022-11-15T14:34:36;97454.72;;;12.05;47.56
40285;BME280;25997;50.214;19.354;2022-11-15T14:37:40;97450.22;;;11.95;47.78
40285;BME280;25997;50.214;19.354;2022-11-15T14:40:43;97440.44;;;11.82;48.00
40285;BME280;25997;50.214;19.354;2022-11-15T14:43:45;97450.84;;;11.73;48.24
40285;BME280;25997;50.214;19.354;2022-11-15T14:46:48;97442.81;;;11.62;48.39
40285;BME280;25997;50.214;19.354;2022-11-15T14:49:50;97440.97;;;11.54;48.59
40285;BME280;25997;50.214;19.354;2022-11-15T14:52:54;97436.47;;;11.45;48.69
40285;BME280;25997;50.214;19.354;2022-11-15T14:55:57;97438.06;;;11.32;49.00
40285;BME280;25997;50.214;19.354;2022-11-15T14:58:59;97433.66;;;11.28;48.96
40285;BME280;25997;50.214;19.354;2022-11-15T15:02:04;97437.94;;;11.23;49.13
40285;BME280;25997;50.214;19.354;2022-11-15T15:05:14;97436.97;;;11.17;49.21
40285;BME280;25997;50.214;19.354;2022-11-15T15:08:19;97434.19;;;11.09;49.15
40285;BME280;25997;50.214;19.354;2022-11-15T15:11:23;97425.34;;;11.03;49.41
40285;BME280;25997;50.214;19.354;2022-11-15T15:14:25;97428.03;;;11.04;49.23
40285;BME280;25997;50.214;19.354;2022-11-15T15:17:28;97425.41;;;11.04;49.46
40285;BME280;25997;50.214;19.354;2022-11-15T15:20:30;97426.28;;;11.06;49.41
40285;BME280;25997;50.214;19.354;2022-11-15T15:23:34;97418.44;;;11.08;49.38
40285;BME280;25997;50.214;19.354;2022-11-15T15:26:37;97419.25;;;11.04;49.42
40285;BME280;25997;50.214;19.354;2022-11-15T15:29:40;97420.03;;;10.98;49.54
40285;BME280;25997;50.214;19.354;2022-11-15T15:32:43;97420.03;;;10.97;49.62
40285;BME280;25997;50.214;19.354;2022-11-15T15:35:45;97413.88;;;10.96;49.65
40285;BME280;25997;50.214;19.354;2022-11-15T15:38:49;97413.03;;;10.99;49.89
40285;BME280;25997;50.214;19.354;2022-11-15T15:41:52;97410.47;;;11.02;49.70
40285;BME280;25997;50.214;19.354;2022-11-15T15:44:54;97415.63;;;10.96;49.83
40285;BME280;25997;50.214;19.354;2022-11-15T15:47:57;97405.91;;;10.89;49.89
40285;BME280;25997;50.214;19.354;2022-11-15T15:50:59;97406.75;;;10.86;50.06
40285;BME280;25997;50.214;19.354;2022-11-15T15:54:03;97407.38;;;10.70;50.22
40285;BME280;25997;50.214;19.354;2022-11-15T15:57:07;97399.34;;;10.59;50.38
40285;BME280;25997;50.214;19.354;2022-11-15T16:00:11;97406.16;;;10.48;50.65
40285;BME280;25997;50.214;19.354;2022-11-15T16:03:13;97391.16;;;10.40;50.66
40285;BME280;25997;50.214;19.354;2022-11-15T16:06:35;97392.91;;;10.42;50.74
40285;BME280;25997;50.214;19.354;2022-11-15T16:09:40;97386.69;;;10.36;50.82
40285;BME280;25997;50.214;19.354;2022-11-15T16:13:00;97395.44;;;10.36;50.77
40285;BME280;25997;50.214;19.354;2022-11-15T16:16:02;97392.00;;;10.39;50.86
40285;BME280;25997;50.214;19.354;2022-11-15T16:19:05;97395.50;;;10.39;50.82
40285;BME280;25997;50.214;19.354;2022-11-15T16:22:07;97390.28;;;10.42;50.88
40285;BME280;25997;50.214;19.354;2022-11-15T16:25:11;97386.88;;;10.46;50.96
40285;BME280;25997;50.214;19.354;2022-11-15T16:28:19;97389.59;;;10.52;50.92
40285;BME280;25997;50.214;19.354;2022-11-15T16:31:22;97390.47;;;10.53;50.73
40285;BME280;25997;50.214;19.354;2022-11-15T16:34:24;97395.53;;;10.41;51.09
40285;BME280;25997;50.214;19.354;2022-11-15T16:37:27;97397.97;;;10.30;51.52
40285;BME280;25997;50.214;19.354;2022-11-15T16:40:32;97389.94;;;10.20;51.61
40285;BME280;25997;50.214;19.354;2022-11-15T16:43:36;97388.97;;;10.13;51.78
40285;BME280;25997;50.214;19.354;2022-11-15T16:46:40;97395.94;;;10.14;51.88
40285;BME280;25997;50.214;19.354;2022-11-15T16:49:43;97388.91;;;10.12;51.97
40285;BME280;25997;50.214;19.354;2022-11-15T16:52:46;97390.53;;;10.05;52.02
40285;BME280;25997;50.214;19.354;2022-11-15T16:55:50;97382.59;;;10.02;52.02
40285;BME280;25997;50.214;19.354;2022-11-15T16:58:52;97383.56;;;10.04;52.03
40285;BME280;25997;50.214;19.354;2022-11-15T17:01:58;97380.03;;;10.04;51.90
40285;BME280;25997;50.214;19.354;2022-11-15T17:05:00;97383.59;;;10.07;51.85
40285;BME280;25997;50.214;19.354;2022-11-15T17:08:03;97373.22;;;10.13;51.93
40285;BME280;25997;50.214;19.354;2022-11-15T17:11:08;97376.81;;;10.20;51.71
40285;BME280;25997;50.214;19.354;2022-11-15T17:14:11;97371.59;;;10.23;51.63
40285;BME280;25997;50.214;19.354;2022-11-15T17:17:14;97373.34;;;10.22;51.71
40285;BME280;25997;50.214;19.354;2022-11-15T17:20:17;97363.66;;;10.18;51.74
40285;BME280;25997;50.214;19.354;2022-11-15T17:23:20;97360.13;;;10.16;51.72
40285;BME280;25997;50.214;19.354;2022-11-15T17:26:24;97365.38;;;10.15;51.91
40285;BME280;25997;50.214;19.354;2022-11-15T17:29:26;97356.59;;;10.14;51.90
40285;BME280;25997;50.214;19.354;2022-11-15T17:32:30;97360.13;;;10.15;51.70
40285;BME280;25997;50.214;19.354;2022-11-15T17:35:32;97350.50;;;10.15;51.86
40285;BME280;25997;50.214;19.354;2022-11-15T17:38:35;97347.91;;;10.18;51.84
40285;BME280;25997;50.214;19.354;2022-11-15T17:41:39;97342.72;;;10.20;51.69
40285;BME280;25997;50.214;19.354;2022-11-15T17:44:41;97340.09;;;10.20;51.86
40285;BME280;25997;50.214;19.354;2022-11-15T17:47:44;97336.59;;;10.19;51.91
40285;BME280;25997;50.214;19.354;2022-11-15T17:50:54;97336.66;;;10.25;51.85
40285;BME280;25997;50.214;19.354;2022-11-15T17:53:56;97330.59;;;10.29;51.79
40285;BME280;25997;50.214;19.354;2022-11-15T17:57:00;97326.31;;;10.34;51.69
40285;BME280;25997;50.214;19.354;2022-11-15T18:00:03;97321.91;;;10.33;51.57
40285;BME280;25997;50.214;19.354;2022-11-15T18:03:06;97319.25;;;10.29;51.52
40285;BME280;25997;50.214;19.354;2022-11-15T18:06:09;97313.06;;;10.27;51.58
40285;BME280;25997;50.214;19.354;2022-11-15T18:09:12;97313.94;;;10.26;51.70
40285;BME280;25997;50.214;19.354;2022-11-15T18:12:16;97309.59;;;10.26;51.52
40285;BME280;25997;50.214;19.354;2022-11-15T18:15:19;97307.91;;;10.31;51.61
40285;BME280;25997;50.214;19.354;2022-11-15T18:18:22;97304.44;;;10.32;51.53
40285;BME280;25997;50.214;19.354;2022-11-15T18:21:26;97300.16;;;10.40;51.64
40285;BME280;25997;50.214;19.354;2022-11-15T18:24:31;97301.13;;;10.47;51.53
40285;BME280;25997;50.214;19.354;2022-11-15T18:27:36;97290.75;;;10.53;51.52
40285;BME280;25997;50.214;19.354;2022-11-15T18:30:38;97286.41;;;10.58;51.37
40285;BME280;25997;50.214;19.354;2022-11-15T18:33:42;97289.84;;;10.52;51.54
40285;BME280;25997;50.214;19.354;2022-11-15T18:36:44;97283.66;;;10.49;51.66
40285;BME280;25997;50.214;19.354;2022-11-15T18:39:47;97278.38;;;10.46;51.75
40285;BME280;25997;50.214;19.354;2022-11-15T18:42:53;97275.69;;;10.40;51.78
40285;BME280;25997;50.214;19.354;2022-11-15T18:46:00;97278.19;;;10.34;51.95
40285;BME280;25997;50.214;19.354;2022-11-15T18:49:04;97272.94;;;10.31;52.16
40285;BME280;25997;50.214;19.354;2022-11-15T18:52:07;97269.41;;;10.29;52.16
40285;BME280;25997;50.214;19.354;2022-11-15T18:55:10;97269.34;;;10.24;52.17
40285;BME280;25997;50.214;19.354;2022-11-15T18:58:15;97264.09;;;10.24;52.31
40285;BME280;25997;50.214;19.354;2022-11-15T19:01:19;97264.09;;;10.26;52.18
40285;BME280;25997;50.214;19.354;2022-11-15T19:04:22;97261.56;;;10.32;52.07
40285;BME280;25997;50.214;19.354;2022-11-15T19:07:25;97266.78;;;10.30;52.10
40285;BME280;25997;50.214;19.354;2022-11-15T19:10:27;97279.06;;;10.33;51.87
40285;BME280;25997;50.214;19.354;2022-11-15T19:13:31;97273.84;;;10.36;51.97
40285;BME280;25997;50.214;19.354;2022-11-15T19:16:36;97274.75;;;10.38;51.85
40285;BME280;25997;50.214;19.354;2022-11-15T19:19:39;97275.69;;;10.41;51.86
40285;BME280;25997;50.214;19.354;2022-11-15T19:22:41;97271.44;;;10.49;51.74
40285;BME280;25997;50.214;19.354;2022-11-15T19:25:52;97284.75;;;10.64;51.57
40285;BME280;25997;50.214;19.354;2022-11-15T19:28:59;97285.88;;;10.83;51.39
40285;BME280;25997;50.214;19.354;2022-11-15T19:32:02;97276.41;;;10.94;51.24
40285;BME280;25997;50.214;19.354;2022-11-15T19:35:05;97269.47;;;11.02;51.19
40285;BME280;25997;50.214;19.354;2022-11-15T19:38:08;97272.16;;;11.05;51.26
40285;BME280;25997;50.214;19.354;2022-11-15T19:41:12;97266.00;;;11.05;51.39